Timeline UpdatesTrip UpdatesNews PostsPvt PostsTravel TipsAdmin PostsConv PostsFollowed PostsChat RequestsBlog PostsPNR Posts

Disclaimer
Search
 
 
Thu Sep 18, 2014 03:07:45 ISTHomeTrainsΣChainsAtlasPNRForumGalleryNewsFAQTripsMembersLoginFeedback
No Recent News for this Train
Other Trains in the News **new
Latest...
.
Tue Aug 14, 2012 (11:48AM)
⇐ Return Journey: Train# 51153

51154/Bhusaval Mumbai Passenger (UnReserved)

Time-Table HAS CHANGED.
Sep 03 (1:21PM)
Change Departure Station:
Change Arrival Station:
Post a Train Travel TipPost a Train Travel Tip **new
Post a Comment/Question/Picture/VideoPost a Comment/Question/Picture/Video
Pantry/Catering
✕ NO Pantry Car
✕ NO Catering
RSA - Rake Sharing
No RSA.
Rake/Coach Composition
Entry# 145371 Author: ® राहुल कुमार जैन ; Engine, SLR, GS, GS, GS, GS, GS, GS, GS, GS, GS, GS, GS, GS, SLR= 14 coach
Loco
BSL-IGP : WAP-4 BSL, IGP-CSTM : WCAM-3 KYN.
News    PNR    Forum    Time-Table    Availability    Fare Chart    Map    Arr/Dep History    Trips    Gallery    ΣChains    X/O    Timeline    
Travel Time: 0h 52m    3 halts    Distance: 45 km    Avg Speed: 51 km/hr
Type: Passenger
Zone: CR/Central
Departs @ 07:05
Platform# 5
SMTWTFS
Bhusaval Junction/BSL 
Arrives @ 07:57
Platform# ???
SMTWTFS
Mhasavad/MWD 

3 halts. 4 intermediate Stations between Bhusaval Junction and Mhasavad

Hide intermediate Stations  Show Old Time-Table

#CodeStation NameX/OArrivesAvgDepartsAvgHaltPFDay#KmSpeedElevZoneAddress
1BSLBhusaval Junction (8)»  -07:05-510.047208mCRBhusaval 425201, Maharashtra
2BDIBhadli (2)  07:21-07:22-1m--112.677211mCRBhadli, Maharashtra
2.1TRWTarsod  07:27-07:27-  119.4 77206mCRAsoda - Tarsod Road, Maharashtra
3JLJalgaon Junction (4)X  07:31-07:34-3m2124.154213mCRJalgaon 425001, Maharashtra
4SSShirsoli (2)X  07:47-07:48-1m--135.962211mCRShirsoli, Maharashtra
5MWDMhasavad (3)•  07:57-07:58-1m--145.271220mCRMhasavad, Maharashtra
6MYJMaheji (2)  08:08-08:09-1m--157.063247mCRJalgaon, Maharashtra
7PHQPardhande (2)XO  08:16-08:17-1m--164.434243mCRPardhande, Maharashtra
8PCPachora Junction (4)O  08:30-08:35-5m--171.826264mCRPachora 424201, Maharashtra
9GAAGalan (2)  08:59-09:00-1m--182.356282mCRGalan, Maharashtra
10NGDNagardevla (2)O  09:09-09:10-1m--190.746280mCRNagardevla, Maharashtra
11KJKajgaon (3)  09:19-09:20-1m--197.665297mCRKajgaon, Maharashtra
12VGLVaghli (2)  09:29-09:30-1m--1107.356331mCRVaghli, Maharashtra
13CSNChalisgaon Junction (3)  09:40-09:45-5m--1116.752352mCRChalisgaon 424101, Maharashtra
14HPRHirapur (2)  09:54-09:55-1m--1124.591373mCRHirapur, Maharashtra
14.1RHNERohini (2)  09:59 10:01-10:00 10:01-  1133.6 91422mCRRohini, Maharashtra
15NINaydongri (2)X  10:09 10:04-10:10 10:05-1m--1138.265427mCRNaydongri, Maharashtra
16PKEPimpar Khed (2)  10:19 10:14-10:20 10:15-1m--1148.050462mCRPimpar Khed, Maharashtra
17NGNNandgaon (3)X  10:34 10:28-10:35 10:30-1 2m--1158.897476mCRNandgaon, Maharashtra
18PJNPanjhan (2)  10:39 10:34-10:40 10:35-1m--1165.336514mCRPanjhan, Maharashtra
19HSLHisvahal (2)  10:49 10:44-10:50 10:45-1m--1170.851540mCRHisvahal, Maharashtra
20PNVPanevadi (2)  10:59 10:54-11:00 10:55-1m--1178.5-561mCRPanevadi, Maharashtra
21MMRManmad Junction (6)X  11:12 10:57-11:15 11:00-3m31184.231580mCRManmad 423104, Maharashtra
22SUMSummit (2)  11:29 11:24-11:30 11:25-1m21196.656632mCRSummit, Maharashtra
23LSLasalgaon (3)  11:44 11:38-11:45 11:40-1 2m--1208.766592mCRLasalgaon, Maharashtra
24UGNUgaon (2)X  11:54 11:49-11:55 11:50-1m21218.647568mCRUgaon, Maharashtra
25NRNiphad (3)XO  12:04 11:59-12:05 12:00-1m21225.640550mCRNashik, Maharashtra
26KBSNKasbe Sukene (3)  12:14 12:09-12:15 12:10-1m--1231.645548mCRKasbe Sukene, Maharashtra
27KWKhervadi (2)O  12:24 12:19-12:25 12:20-1m21238.347553mCRKherwadi, Maharashtra
28ODHAOdha (2)  12:34 12:29-12:35 12:30-1m21245.435571mCRDist. Nashik, Maharashtra
29NKNasik Road (3)  12:50-13:10 13:05-20 15m31257.025563mCRNashik 422101, Maharashtra
30DVLDevlali (3)  13:24 13:19-13:25 13:20-1m21262.732561mCRDist. Nashik 422401, Maharashtra
31LTLahavit (1)X  13:39 13:34-13:40 13:35-1m11270.383587mCRWadhiware, Maharashtra
32AVAsvali (2)X  13:49 13:44-13:50 13:45-1m--1282.7127578mCRAsvali, Maharashtra
33PIPadli (1)X  13:59 13:49-14:00 13:50-1m11291.226591mCRNational Highway 3, Maharashtra
34GOGhoti (2)XO  14:14 14:09-14:15 14:10-1m--1299.55581mCRGhoti, Maharashtra
35IGPIgatpuri (4)X15:40-15:45-5m--1307.620589mCRIgatpuri 422403, Maharashtra
35.1TGR2Block & Catch Siding Cabin 2X  16:09 16:07-16:10 16:07-  1314.7 20473mCRNational Highway 3, Maharashtra
35.2TGR3Block & Catch Siding Cabin 3X  16:18-16:20 16:18-  1318.2 20365mCRNH-3, Maharashtra
36KSRAKasara (4)  16:34 16:29-16:35 16:30-1m--1322.089290mCRDist. Thane 421602, Maharashtra
36.1OMBOombermaliX  16:48 16:35-16:49 16:35-  1328.8 89248mCROombermali, Maharashtra
37KEKhardi (2)X  16:54 16:39-16:55 16:40-1m--1335.352232mCRKhardi, Maharashtra
37.1THSThansit  17:01 16:47-17:02 16:47-  1341.5 52184mCRNational Highway 3, Maharashtra
38ATGAtgaon (2)  17:07 16:54-17:08 16:55-1m--1347.442147mCRAtgaon, Maharashtra
39ASOAsangaon (3)X  17:20 17:09-17:21 17:10-1m--1357.24077mCRDist. Thane, Maharashtra
40VSDVasind (2)  17:29 17:19-17:30 17:20-1m--1363.25132mCRVasind, Maharashtra
41KDVKhadavli (3)X  17:44 17:29-17:45 17:30-1m--1370.811423mCRKhadavli, Maharashtra
42TLATitwala (3)X  18:29 17:34-18:30 17:35-1m--1378.47217mCRTitwala, Maharashtra
43ABYAmbivli (2)X  18:37 17:39-18:38 17:40-1m21383.24522mCRAmbivli, Maharashtra
44SHADShahad (2)  18:43 17:44-18:44 17:45-1m21386.22812mCRUlhasnagar, Maharashtra
45KYNKalyan Junction (8)X  18:45 17:52-18:50 17:55-5 3m51389.46710mCRKalyan 421301, Maharashtra
45.1THKThakurli (2)O  17:58-17:58-  1393.0 6714mCRThakurli, Maharashtra
45.2DIDombivli (5)X  17:59-17:59-  1394.4 6711mCRDombivli, Maharashtra
45.3KOPRKopar (4)  18:01-18:01-  1395.7 670mCRKopar, Maharashtra
45.4DIVADiva Junction (6)  18:04-18:04-  1400.0 673mCRJn Pt TNA/PNVL/KYN/BSR Diva, Maharashtra
45.5MBQMumbra (2)  18:07-18:07-  1402.6 678mCRMumbra, Maharashtra
45.6KLVAKalva (2)  18:11-18:11-  1407.1 675mCRKalva, Maharashtra
46TNAThane (10)  19:13 18:13-19:15 18:15-2m61409.65810mCRThane (West) 400602, Maharashtra
46.1MLNDMulund (4)  18:18-18:18-  1412.2 5812mCRMumbai, Maharashtra
46.2NHUNahur (2)X  18:20-18:20-  1414.4 585mCRMumbai, Maharashtra
46.3BNDBhandup (4)  18:22-18:22-  1416.0 587mCRMumbai 400078, Maharashtra
46.4KJMGKanjur Marg (2)  18:24-18:24-  1417.9 585mCRMumbai, Maharashtra
46.5VKVikhroli (4)  18:25-18:25-  1419.8 5810mCRMumbai, Maharashtra
46.6GCGhatkopar (4)  18:29-18:29-  1423.4 5811mCRMumbai 400086, Maharashtra
46.7VVHVidyavihar (2)  18:31-18:31-  1424.8 588mCRMumbai, Maharashtra
46.8LTTMumbai Lokmanya Tilak Terminus (5)  18:32-18:32-  1426.1 587mCRMumbai - 400089, Maharashtra
46.9CLAKurla Junction (8)X  18:33-18:33-  1427.2 588mCRMumbai, Maharashtra
46.10SINMumbai Sion (4)  18:36-18:36-  1429.8 587mCRMumbai, Maharashtra
46.11MTNMumbai Matunga (4)  18:39-18:39-  1432.5 587mCRMumbai, Maharashtra
47DRMumbai Dadar Central (8)  19:40 18:40-19:45 18:45-5m61433.9217mCRMumbai 400014, Maharashtra
47.1PRMumbai Parel (4)  18:48-18:48-  1434.9 216mCRMumbai, Maharashtra
47.2CRDMumbai Currey Road (2)  18:53-18:53-  1436.7 215mCRMumbai, Maharashtra
47.3CHGMumbai Chinchpokli (2)  18:55-18:55-  1437.5 216mCRMumbai, Maharashtra
47.4BYByculla (4)  18:59-18:59-  1438.6 219mCRMumbai 400027, Maharashtra
47.5SNRDMumbai Sandhurst Road (4)  19:04-19:04-  1440.5 219mCRMumbai, Maharashtra
47.6MSDMumbai Masjid (4)  19:07-19:07-  1441.6 2110mCRMumbai, Maharashtra
48CSTMMumbai CST (18)  20:15 19:10--111442.5-10mCRMumbai 400001, Maharashtra
Scroll to Top
Scroll to Bottom